Terminal Aerodrome Forecast
Issued by NWS St Louis, MO

Home | Current Version | Previous Version | Text Only | Print | Product List | Glossary On
Versions: 1 2 3 4 5 6 7 8 9 10 11 12 13 14 15 16 17 18 19 20 21 22
000
FTUS43 KLSX 292300
TAFCOU
TAF
KCOU 292339Z 3000/3024 17006KT 4SM -TSRA BR BKN030CB
      TEMPO 3001/3003 VRB15G30KT 2SM +TSRA OVC015CB
     FM300600 18006KT 6SM -SHRA BR SCT015 BKN025
     FM301200 32009KT 5SM BR OVC010
     FM301800 32013KT P6SM OVC012=

USA.gov is the U.S. government's official web portal to all federal, state and local government web resources and services.